sensor_id;sensor_type;location;lat;lon;timestamp;temperature;humidity
55211;DHT22;41082;52.822;6.666;2023-04-03T00:00:29;3.20;99.90
55211;DHT22;41082;52.822;6.666;2023-04-03T00:02:55;3.20;99.90
55211;DHT22;41082;52.822;6.666;2023-04-03T00:05:21;3.10;99.90
55211;DHT22;41082;52.822;6.666;2023-04-03T00:07:46;3.10;99.90
55211;DHT22;41082;52.822;6.666;2023-04-03T00:10:12;3.10;99.90
55211;DHT22;41082;52.822;6.666;2023-04-03T00:12:39;3.10;99.90
55211;DHT22;41082;52.822;6.666;2023-04-03T00:15:05;3.00;99.90
55211;DHT22;41082;52.822;6.666;2023-04-03T00:17:31;3.00;99.90
55211;DHT22;41082;52.822;6.666;2023-04-03T00:19:56;3.00;99.90
55211;DHT22;41082;52.822;6.666;2023-04-03T00:22:22;3.00;99.90
55211;DHT22;41082;52.822;6.666;2023-04-03T00:24:47;2.90;99.90
55211;DHT22;41082;52.822;6.666;2023-04-03T00:27:13;2.90;99.90
55211;DHT22;41082;52.822;6.666;2023-04-03T00:29:38;2.90;99.90
55211;DHT22;41082;52.822;6.666;2023-04-03T00:32:04;2.90;99.90
55211;DHT22;41082;52.822;6.666;2023-04-03T00:34:30;2.80;99.90
55211;DHT22;41082;52.822;6.666;2023-04-03T00:36:55;2.80;99.90
55211;DHT22;41082;52.822;6.666;2023-04-03T00:39:22;2.80;99.90
55211;DHT22;41082;52.822;6.666;2023-04-03T00:41:47;2.80;99.90
55211;DHT22;41082;52.822;6.666;2023-04-03T00:46:49;2.70;99.90
55211;DHT22;41082;52.822;6.666;2023-04-03T00:49:14;2.70;99.90
55211;DHT22;41082;52.822;6.666;2023-04-03T00:51:40;2.70;99.90
55211;DHT22;41082;52.822;6.666;2023-04-03T00:54:07;2.70;99.90
55211;DHT22;41082;52.822;6.666;2023-04-03T00:56:33;2.60;99.90
55211;DHT22;41082;52.822;6.666;2023-04-03T00:59:05;2.60;99.90
55211;DHT22;41082;52.822;6.666;2023-04-03T01:01:32;2.60;99.90
55211;DHT22;41082;52.822;6.666;2023-04-03T01:03:59;2.60;99.90
55211;DHT22;41082;52.822;6.666;2023-04-03T01:06:28;2.60;99.90
55211;DHT22;41082;52.822;6.666;2023-04-03T01:08:56;2.50;99.90
55211;DHT22;41082;52.822;6.666;2023-04-03T01:11:22;2.50;99.90
55211;DHT22;41082;52.822;6.666;2023-04-03T01:13:48;2.50;99.90
55211;DHT22;41082;52.822;6.666;2023-04-03T01:16:14;2.50;99.90
55211;DHT22;41082;52.822;6.666;2023-04-03T01:18:40;2.50;99.90
55211;DHT22;41082;52.822;6.666;2023-04-03T01:21:10;2.50;99.90
55211;DHT22;41082;52.822;6.666;2023-04-03T01:26:20;2.40;99.90
55211;DHT22;41082;52.822;6.666;2023-04-03T01:28:46;2.40;99.90
55211;DHT22;41082;52.822;6.666;2023-04-03T01:32:16;2.40;99.90
55211;DHT22;41082;52.822;6.666;2023-04-03T01:34:16;2.40;99.90
55211;DHT22;41082;52.822;6.666;2023-04-03T01:36:42;2.40;99.90
55211;DHT22;41082;52.822;6.666;2023-04-03T01:39:08;2.40;99.90
55211;DHT22;41082;52.822;6.666;2023-04-03T01:41:34;2.40;99.90
55211;DHT22;41082;52.822;6.666;2023-04-03T01:43:59;2.40;99.90
55211;DHT22;41082;52.822;6.666;2023-04-03T01:46:25;2.40;99.90
55211;DHT22;41082;52.822;6.666;2023-04-03T01:48:50;2.40;99.90
55211;DHT22;41082;52.822;6.666;2023-04-03T01:51:16;2.40;99.90
55211;DHT22;41082;52.822;6.666;2023-04-03T01:53:42;2.40;99.90
55211;DHT22;41082;52.822;6.666;2023-04-03T01:56:08;2.40;99.90
55211;DHT22;41082;52.822;6.666;2023-04-03T01:58:33;2.40;99.90
55211;DHT22;41082;52.822;6.666;2023-04-03T02:00:59;2.40;99.90
55211;DHT22;41082;52.822;6.666;2023-04-03T02:03:25;2.40;99.90
55211;DHT22;41082;52.822;6.666;2023-04-03T02:05:52;2.40;99.90
55211;DHT22;41082;52.822;6.666;2023-04-03T02:08:18;2.40;99.90
55211;DHT22;41082;52.822;6.666;2023-04-03T02:10:46;2.30;99.90
55211;DHT22;41082;52.822;6.666;2023-04-03T02:13:12;2.30;99.90
55211;DHT22;41082;52.822;6.666;2023-04-03T02:15:38;2.30;99.90
55211;DHT22;41082;52.822;6.666;2023-04-03T02:18:05;2.30;99.90
55211;DHT22;41082;52.822;6.666;2023-04-03T02:20:30;2.20;99.90
55211;DHT22;41082;52.822;6.666;2023-04-03T02:22:56;2.20;99.90
55211;DHT22;41082;52.822;6.666;2023-04-03T02:25:21;2.20;99.90
55211;DHT22;41082;52.822;6.666;2023-04-03T02:27:47;2.10;99.90
55211;DHT22;41082;52.822;6.666;2023-04-03T02:30:13;2.10;99.90
55211;DHT22;41082;52.822;6.666;2023-04-03T02:32:40;2.00;99.90
55211;DHT22;41082;52.822;6.666;2023-04-03T02:35:06;2.00;99.90
55211;DHT22;41082;52.822;6.666;2023-04-03T02:37:32;2.00;99.90
55211;DHT22;41082;52.822;6.666;2023-04-03T02:39:58;2.00;99.90
55211;DHT22;41082;52.822;6.666;2023-04-03T02:42:23;1.90;99.90
55211;DHT22;41082;52.822;6.666;2023-04-03T02:44:49;1.90;99.90
55211;DHT22;41082;52.822;6.666;2023-04-03T02:47:14;1.90;99.90
55211;DHT22;41082;52.822;6.666;2023-04-03T02:49:41;1.90;99.90
55211;DHT22;41082;52.822;6.666;2023-04-03T02:52:09;1.90;99.90
55211;DHT22;41082;52.822;6.666;2023-04-03T02:54:34;1.80;99.90
55211;DHT22;41082;52.822;6.666;2023-04-03T02:57:00;1.80;99.90
55211;DHT22;41082;52.822;6.666;2023-04-03T02:59:26;1.80;99.90
55211;DHT22;41082;52.822;6.666;2023-04-03T03:01:51;1.80;99.90
55211;DHT22;41082;52.822;6.666;2023-04-03T03:04:17;1.80;99.90
55211;DHT22;41082;52.822;6.666;2023-04-03T03:06:43;1.80;99.90
55211;DHT22;41082;52.822;6.666;2023-04-03T03:09:08;1.80;99.90
55211;DHT22;41082;52.822;6.666;2023-04-03T03:11:34;1.80;99.90
55211;DHT22;41082;52.822;6.666;2023-04-03T03:13:59;1.80;99.90
55211;DHT22;41082;52.822;6.666;2023-04-03T03:16:25;1.80;99.90
55211;DHT22;41082;52.822;6.666;2023-04-03T03:18:51;1.70;99.90
55211;DHT22;41082;52.822;6.666;2023-04-03T03:21:16;1.70;99.90
55211;DHT22;41082;52.822;6.666;2023-04-03T03:23:42;1.70;99.90
55211;DHT22;41082;52.822;6.666;2023-04-03T03:26:09;1.70;99.90
55211;DHT22;41082;52.822;6.666;2023-04-03T03:28:36;1.70;99.90
55211;DHT22;41082;52.822;6.666;2023-04-03T03:31:02;1.70;99.90
55211;DHT22;41082;52.822;6.666;2023-04-03T03:33:28;1.70;99.90
55211;DHT22;41082;52.822;6.666;2023-04-03T03:35:54;1.70;99.90
55211;DHT22;41082;52.822;6.666;2023-04-03T03:38:20;1.70;99.90
55211;DHT22;41082;52.822;6.666;2023-04-03T03:40:50;1.60;99.90
55211;DHT22;41082;52.822;6.666;2023-04-03T03:43:16;1.60;99.90
55211;DHT22;41082;52.822;6.666;2023-04-03T03:45:42;1.60;99.90
55211;DHT22;41082;52.822;6.666;2023-04-03T03:48:08;1.60;99.90
55211;DHT22;41082;52.822;6.666;2023-04-03T03:50:34;1.50;99.90
55211;DHT22;41082;52.822;6.666;2023-04-03T03:53:00;1.50;99.90
55211;DHT22;41082;52.822;6.666;2023-04-03T03:55:25;1.40;99.90
55211;DHT22;41082;52.822;6.666;2023-04-03T03:57:51;1.40;99.90
55211;DHT22;41082;52.822;6.666;2023-04-03T04:00:17;1.40;99.90
55211;DHT22;41082;52.822;6.666;2023-04-03T04:02:43;1.40;99.90
55211;DHT22;41082;52.822;6.666;2023-04-03T04:05:09;1.30;99.90
55211;DHT22;41082;52.822;6.666;2023-04-03T04:07:35;1.30;99.90
55211;DHT22;41082;52.822;6.666;2023-04-03T04:10:00;1.30;99.90
55211;DHT22;41082;52.822;6.666;2023-04-03T04:12:26;1.30;99.90
55211;DHT22;41082;52.822;6.666;2023-04-03T04:14:52;1.20;99.90
55211;DHT22;41082;52.822;6.666;2023-04-03T04:17:17;1.20;99.90
55211;DHT22;41082;52.822;6.666;2023-04-03T04:19:43;1.20;99.90
55211;DHT22;41082;52.822;6.666;2023-04-03T04:22:08;1.20;99.90
55211;DHT22;41082;52.822;6.666;2023-04-03T04:24:34;1.20;99.90
55211;DHT22;41082;52.822;6.666;2023-04-03T04:27:00;1.10;99.90
55211;DHT22;41082;52.822;6.666;2023-04-03T04:29:25;1.10;99.90
55211;DHT22;41082;52.822;6.666;2023-04-03T04:31:51;1.10;99.90
55211;DHT22;41082;52.822;6.666;2023-04-03T04:34:16;1.10;99.90
55211;DHT22;41082;52.822;6.666;2023-04-03T04:36:42;1.00;99.90
55211;DHT22;41082;52.822;6.666;2023-04-03T04:39:08;1.00;99.90
55211;DHT22;41082;52.822;6.666;2023-04-03T04:41:34;1.00;99.90
55211;DHT22;41082;52.822;6.666;2023-04-03T04:44:00;1.00;99.90
55211;DHT22;41082;52.822;6.666;2023-04-03T04:46:26;1.00;99.90
55211;DHT22;41082;52.822;6.666;2023-04-03T04:48:52;1.00;99.90
55211;DHT22;41082;52.822;6.666;2023-04-03T04:51:18;1.00;99.90
55211;DHT22;41082;52.822;6.666;2023-04-03T04:53:43;0.90;99.90
55211;DHT22;41082;52.822;6.666;2023-04-03T04:56:09;0.90;99.90
55211;DHT22;41082;52.822;6.666;2023-04-03T04:58:35;0.90;99.90
55211;DHT22;41082;52.822;6.666;2023-04-03T05:01:03;0.90;99.90
55211;DHT22;41082;52.822;6.666;2023-04-03T05:03:29;0.80;99.90
55211;DHT22;41082;52.822;6.666;2023-04-03T05:05:55;0.80;99.90
55211;DHT22;41082;52.822;6.666;2023-04-03T05:08:20;0.80;99.90
55211;DHT22;41082;52.822;6.666;2023-04-03T05:10:46;0.80;99.90
55211;DHT22;41082;52.822;6.666;2023-04-03T05:13:12;0.80;99.90
55211;DHT22;41082;52.822;6.666;2023-04-03T05:15:38;0.80;99.90
55211;DHT22;41082;52.822;6.666;2023-04-03T05:18:03;0.80;99.90
55211;DHT22;41082;52.822;6.666;2023-04-03T05:20:31;0.70;99.90
55211;DHT22;41082;52.822;6.666;2023-04-03T05:22:56;0.70;99.90
55211;DHT22;41082;52.822;6.666;2023-04-03T05:25:22;0.80;99.90
55211;DHT22;41082;52.822;6.666;2023-04-03T05:27:47;0.80;99.90
55211;DHT22;41082;52.822;6.666;2023-04-03T05:30:13;0.80;99.90
55211;DHT22;41082;52.822;6.666;2023-04-03T05:32:39;0.80;99.90
55211;DHT22;41082;52.822;6.666;2023-04-03T05:35:06;0.80;99.90
55211;DHT22;41082;52.822;6.666;2023-04-03T05:37:33;0.80;99.90
55211;DHT22;41082;52.822;6.666;2023-04-03T05:39:58;0.90;99.90
55211;DHT22;41082;52.822;6.666;2023-04-03T05:42:24;0.90;99.90
55211;DHT22;41082;52.822;6.666;2023-04-03T05:44:50;0.90;99.90
55211;DHT22;41082;52.822;6.666;2023-04-03T05:47:16;0.90;99.90
55211;DHT22;41082;52.822;6.666;2023-04-03T05:49:41;0.90;99.90
55211;DHT22;41082;52.822;6.666;2023-04-03T05:52:21;1.00;99.90
55211;DHT22;41082;52.822;6.666;2023-04-03T05:54:48;1.10;99.90
55211;DHT22;41082;52.822;6.666;2023-04-03T05:57:15;1.10;99.90
55211;DHT22;41082;52.822;6.666;2023-04-03T05:59:42;1.10;99.90
55211;DHT22;41082;52.822;6.666;2023-04-03T06:02:20;1.20;99.90
55211;DHT22;41082;52.822;6.666;2023-04-03T06:04:47;1.20;99.90
55211;DHT22;41082;52.822;6.666;2023-04-03T06:07:21;1.20;99.90
55211;DHT22;41082;52.822;6.666;2023-04-03T06:09:49;1.30;99.90
55211;DHT22;41082;52.822;6.666;2023-04-03T06:12:15;1.40;99.90
55211;DHT22;41082;52.822;6.666;2023-04-03T06:14:40;1.40;99.90
55211;DHT22;41082;52.822;6.666;2023-04-03T06:17:06;1.50;99.90
55211;DHT22;41082;52.822;6.666;2023-04-03T06:19:33;1.50;99.90
55211;DHT22;41082;52.822;6.666;2023-04-03T06:21:59;1.60;99.90
55211;DHT22;41082;52.822;6.666;2023-04-03T06:24:25;1.70;99.90
55211;DHT22;41082;52.822;6.666;2023-04-03T06:26:52;1.80;99.90
55211;DHT22;41082;52.822;6.666;2023-04-03T06:29:19;1.90;99.90
55211;DHT22;41082;52.822;6.666;2023-04-03T06:31:45;2.00;99.90
55211;DHT22;41082;52.822;6.666;2023-04-03T06:34:12;2.10;99.90
55211;DHT22;41082;52.822;6.666;2023-04-03T06:36:38;2.20;99.90
55211;DHT22;41082;52.822;6.666;2023-04-03T06:39:04;2.30;99.90
55211;DHT22;41082;52.822;6.666;2023-04-03T06:41:30;2.40;99.90
55211;DHT22;41082;52.822;6.666;2023-04-03T06:43:56;2.50;99.90
55211;DHT22;41082;52.822;6.666;2023-04-03T06:46:24;2.60;99.90
55211;DHT22;41082;52.822;6.666;2023-04-03T06:48:50;2.70;99.90
55211;DHT22;41082;52.822;6.666;2023-04-03T06:51:24;2.80;99.90
55211;DHT22;41082;52.822;6.666;2023-04-03T06:53:52;2.90;99.90
55211;DHT22;41082;52.822;6.666;2023-04-03T06:56:18;3.00;99.90
55211;DHT22;41082;52.822;6.666;2023-04-03T06:58:45;3.10;99.90
55211;DHT22;41082;52.822;6.666;2023-04-03T07:01:13;3.20;99.90
55211;DHT22;41082;52.822;6.666;2023-04-03T07:03:39;3.20;99.90
55211;DHT22;41082;52.822;6.666;2023-04-03T07:06:07;3.30;99.90
55211;DHT22;41082;52.822;6.666;2023-04-03T07:08:34;3.30;99.90
55211;DHT22;41082;52.822;6.666;2023-04-03T07:11:00;3.40;99.90
55211;DHT22;41082;52.822;6.666;2023-04-03T07:13:26;3.40;99.90
55211;DHT22;41082;52.822;6.666;2023-04-03T07:15:52;3.50;99.90
55211;DHT22;41082;52.822;6.666;2023-04-03T07:18:18;3.50;99.90
55211;DHT22;41082;52.822;6.666;2023-04-03T07:20:43;3.60;99.90
55211;DHT22;41082;52.822;6.666;2023-04-03T07:23:09;3.60;99.90
55211;DHT22;41082;52.822;6.666;2023-04-03T07:25:36;3.70;99.90
55211;DHT22;41082;52.822;6.666;2023-04-03T07:28:01;3.70;99.90
55211;DHT22;41082;52.822;6.666;2023-04-03T07:30:27;3.70;99.90
55211;DHT22;41082;52.822;6.666;2023-04-03T07:32:53;3.80;99.90
55211;DHT22;41082;52.822;6.666;2023-04-03T07:35:19;3.90;99.90
55211;DHT22;41082;52.822;6.666;2023-04-03T07:37:44;3.90;99.90
55211;DHT22;41082;52.822;6.666;2023-04-03T07:40:10;3.90;99.90
55211;DHT22;41082;52.822;6.666;2023-04-03T07:42:36;4.00;99.90
55211;DHT22;41082;52.822;6.666;2023-04-03T07:45:03;4.10;99.90
55211;DHT22;41082;52.822;6.666;2023-04-03T07:47:29;4.10;99.90
55211;DHT22;41082;52.822;6.666;2023-04-03T07:49:55;4.20;99.90
55211;DHT22;41082;52.822;6.666;2023-04-03T07:52:22;4.20;99.90
55211;DHT22;41082;52.822;6.666;2023-04-03T07:54:48;4.40;99.90
55211;DHT22;41082;52.822;6.666;2023-04-03T07:57:14;4.40;99.90
55211;DHT22;41082;52.822;6.666;2023-04-03T07:59:40;4.50;99.90
55211;DHT22;41082;52.822;6.666;2023-04-03T08:02:09;4.50;99.90
55211;DHT22;41082;52.822;6.666;2023-04-03T08:04:35;4.60;99.90
55211;DHT22;41082;52.822;6.666;2023-04-03T08:07:01;4.60;99.90
55211;DHT22;41082;52.822;6.666;2023-04-03T08:09:26;4.70;99.90
55211;DHT22;41082;52.822;6.666;2023-04-03T08:11:52;4.80;99.90
55211;DHT22;41082;52.822;6.666;2023-04-03T08:14:19;4.80;99.90
55211;DHT22;41082;52.822;6.666;2023-04-03T08:16:46;5.00;99.90
55211;DHT22;41082;52.822;6.666;2023-04-03T08:19:12;5.10;99.90
55211;DHT22;41082;52.822;6.666;2023-04-03T08:21:40;5.10;99.90
55211;DHT22;41082;52.822;6.666;2023-04-03T08:24:08;5.20;99.90
55211;DHT22;41082;52.822;6.666;2023-04-03T08:26:34;5.30;99.90
55211;DHT22;41082;52.822;6.666;2023-04-03T08:29:00;5.30;99.90
55211;DHT22;41082;52.822;6.666;2023-04-03T08:31:25;5.40;99.90
55211;DHT22;41082;52.822;6.666;2023-04-03T08:33:52;5.50;99.90
55211;DHT22;41082;52.822;6.666;2023-04-03T08:36:23;5.60;99.90
55211;DHT22;41082;52.822;6.666;2023-04-03T08:38:50;5.70;99.90
55211;DHT22;41082;52.822;6.666;2023-04-03T08:49:23;6.00;99.90
55211;DHT22;41082;52.822;6.666;2023-04-03T08:51:51;6.00;99.90
55211;DHT22;41082;52.822;6.666;2023-04-03T08:54:28;6.10;99.90
55211;DHT22;41082;52.822;6.666;2023-04-03T08:56:55;6.20;99.90
55211;DHT22;41082;52.822;6.666;2023-04-03T08:59:27;6.30;99.90
55211;DHT22;41082;52.822;6.666;2023-04-03T09:01:54;6.40;99.90
55211;DHT22;41082;52.822;6.666;2023-04-03T09:04:21;6.40;99.90
55211;DHT22;41082;52.822;6.666;2023-04-03T09:06:53;6.50;99.90
55211;DHT22;41082;52.822;6.666;2023-04-03T09:14:36;6.60;99.90
55211;DHT22;41082;52.822;6.666;2023-04-03T09:17:09;6.70;99.90
55211;DHT22;41082;52.822;6.666;2023-04-03T09:19:41;6.80;99.90
55211;DHT22;41082;52.822;6.666;2023-04-03T09:22:27;6.90;99.90
55211;DHT22;41082;52.822;6.666;2023-04-03T09:24:58;7.00;99.90
55211;DHT22;41082;52.822;6.666;2023-04-03T09:27:26;7.10;99.90
55211;DHT22;41082;52.822;6.666;2023-04-03T09:29:54;7.20;99.90
55211;DHT22;41082;52.822;6.666;2023-04-03T09:32:29;7.30;99.90
55211;DHT22;41082;52.822;6.666;2023-04-03T09:34:59;7.50;99.90
55211;DHT22;41082;52.822;6.666;2023-04-03T09:37:34;7.60;99.90
55211;DHT22;41082;52.822;6.666;2023-04-03T09:40:02;7.60;98.40
55211;DHT22;41082;52.822;6.666;2023-04-03T09:42:30;7.80;98.60
55211;DHT22;41082;52.822;6.666;2023-04-03T09:45:02;7.80;99.10
55211;DHT22;41082;52.822;6.666;2023-04-03T09:47:36;8.00;98.30
55211;DHT22;41082;52.822;6.666;2023-04-03T09:50:20;8.00;97.90
55211;DHT22;41082;52.822;6.666;2023-04-03T09:52:48;8.20;96.40
55211;DHT22;41082;52.822;6.666;2023-04-03T09:55:19;8.30;96.80
55211;DHT22;41082;52.822;6.666;2023-04-03T09:57:47;8.30;95.40
55211;DHT22;41082;52.822;6.666;2023-04-03T10:00:23;8.40;95.10
55211;DHT22;41082;52.822;6.666;2023-04-03T10:02:54;8.40;92.70
55211;DHT22;41082;52.822;6.666;2023-04-03T10:05:35;8.40;93.60
55211;DHT22;41082;52.822;6.666;2023-04-03T10:10:36;8.60;93.30
55211;DHT22;41082;52.822;6.666;2023-04-03T10:16:01;8.70;92.90
55211;DHT22;41082;52.822;6.666;2023-04-03T10:21:44;8.80;92.90
55211;DHT22;41082;52.822;6.666;2023-04-03T10:24:14;8.80;92.00
55211;DHT22;41082;52.822;6.666;2023-04-03T10:29:34;8.90;92.90
55211;DHT22;41082;52.822;6.666;2023-04-03T10:32:26;9.00;92.70
55211;DHT22;41082;52.822;6.666;2023-04-03T10:37:51;9.00;91.00
55211;DHT22;41082;52.822;6.666;2023-04-03T10:40:42;9.00;91.40
55211;DHT22;41082;52.822;6.666;2023-04-03T10:43:17;9.10;92.10
55211;DHT22;41082;52.822;6.666;2023-04-03T10:45:51;9.20;92.40
55211;DHT22;41082;52.822;6.666;2023-04-03T10:51:23;9.20;91.70
55211;DHT22;41082;52.822;6.666;2023-04-03T10:54:11;9.30;91.10
55211;DHT22;41082;52.822;6.666;2023-04-03T10:56:56;9.30;90.60
55211;DHT22;41082;52.822;6.666;2023-04-03T10:59:32;9.40;90.50
55211;DHT22;41082;52.822;6.666;2023-04-03T11:02:06;9.50;90.80
55211;DHT22;41082;52.822;6.666;2023-04-03T11:04:36;9.50;90.80
55211;DHT22;41082;52.822;6.666;2023-04-03T11:07:20;9.60;90.90
55211;DHT22;41082;52.822;6.666;2023-04-03T11:09:50;9.70;90.60
55211;DHT22;41082;52.822;6.666;2023-04-03T11:12:44;9.80;91.10
55211;DHT22;41082;52.822;6.666;2023-04-03T11:15:16;9.80;91.40
55211;DHT22;41082;52.822;6.666;2023-04-03T11:21:19;10.00;90.50
55211;DHT22;41082;52.822;6.666;2023-04-03T11:23:48;10.00;90.10
55211;DHT22;41082;52.822;6.666;2023-04-03T11:26:19;10.00;89.70
55211;DHT22;41082;52.822;6.666;2023-04-03T11:28:53;10.10;90.00
55211;DHT22;41082;52.822;6.666;2023-04-03T11:31:39;10.10;90.10
55211;DHT22;41082;52.822;6.666;2023-04-03T11:34:29;10.10;88.90
55211;DHT22;41082;52.822;6.666;2023-04-03T11:37:00;10.10;89.70
55211;DHT22;41082;52.822;6.666;2023-04-03T11:39:33;10.20;89.40
55211;DHT22;41082;52.822;6.666;2023-04-03T11:42:15;10.20;89.30
55211;DHT22;41082;52.822;6.666;2023-04-03T11:44:42;10.20;87.60
55211;DHT22;41082;52.822;6.666;2023-04-03T11:47:10;10.30;88.80
55211;DHT22;41082;52.822;6.666;2023-04-03T11:58:04;10.40;88.90
55211;DHT22;41082;52.822;6.666;2023-04-03T12:00:46;10.40;88.20
55211;DHT22;41082;52.822;6.666;2023-04-03T12:05:50;10.30;87.50
55211;DHT22;41082;52.822;6.666;2023-04-03T12:08:43;10.30;87.40
55211;DHT22;41082;52.822;6.666;2023-04-03T12:29:27;10.10;85.80
55211;DHT22;41082;52.822;6.666;2023-04-03T12:32:24;10.10;85.80
55211;DHT22;41082;52.822;6.666;2023-04-03T12:35:02;10.10;85.60
55211;DHT22;41082;52.822;6.666;2023-04-03T12:40:43;10.10;83.70
55211;DHT22;41082;52.822;6.666;2023-04-03T12:46:07;10.00;85.80
55211;DHT22;41082;52.822;6.666;2023-04-03T12:51:21;9.90;85.10
55211;DHT22;41082;52.822;6.666;2023-04-03T12:53:49;9.80;80.10
55211;DHT22;41082;52.822;6.666;2023-04-03T12:56:25;9.70;81.30
55211;DHT22;41082;52.822;6.666;2023-04-03T12:58:54;9.70;82.00
55211;DHT22;41082;52.822;6.666;2023-04-03T13:01:22;9.70;83.10
55211;DHT22;41082;52.822;6.666;2023-04-03T13:03:51;9.80;82.80
55211;DHT22;41082;52.822;6.666;2023-04-03T13:06:21;9.80;83.40
55211;DHT22;41082;52.822;6.666;2023-04-03T13:08:55;9.80;83.70
55211;DHT22;41082;52.822;6.666;2023-04-03T13:11:27;9.70;81.50
55211;DHT22;41082;52.822;6.666;2023-04-03T13:14:12;9.70;81.90
55211;DHT22;41082;52.822;6.666;2023-04-03T13:16:39;9.70;82.10
55211;DHT22;41082;52.822;6.666;2023-04-03T13:19:14;9.80;82.60
55211;DHT22;41082;52.822;6.666;2023-04-03T13:21:41;9.80;83.00
55211;DHT22;41082;52.822;6.666;2023-04-03T13:24:08;9.80;83.10
55211;DHT22;41082;52.822;6.666;2023-04-03T13:26:35;9.80;77.90
55211;DHT22;41082;52.822;6.666;2023-04-03T13:29:07;9.60;76.90
55211;DHT22;41082;52.822;6.666;2023-04-03T13:31:35;9.60;78.20
55211;DHT22;41082;52.822;6.666;2023-04-03T13:34:11;9.60;79.70
55211;DHT22;41082;52.822;6.666;2023-04-03T13:36:43;9.60;81.10
55211;DHT22;41082;52.822;6.666;2023-04-03T13:41:42;9.60;82.20
55211;DHT22;41082;52.822;6.666;2023-04-03T13:46:46;9.70;83.30
55211;DHT22;41082;52.822;6.666;2023-04-03T13:49:33;9.70;83.50
55211;DHT22;41082;52.822;6.666;2023-04-03T13:52:00;9.70;83.50
55211;DHT22;41082;52.822;6.666;2023-04-03T13:54:37;9.70;82.90
55211;DHT22;41082;52.822;6.666;2023-04-03T13:57:11;9.70;83.20
55211;DHT22;41082;52.822;6.666;2023-04-03T13:59:38;9.70;81.50
55211;DHT22;41082;52.822;6.666;2023-04-03T14:04:33;9.70;82.50
55211;DHT22;41082;52.822;6.666;2023-04-03T14:07:10;9.70;81.90
55211;DHT22;41082;52.822;6.666;2023-04-03T14:09:36;9.60;81.20
55211;DHT22;41082;52.822;6.666;2023-04-03T14:12:15;9.60;81.70
55211;DHT22;41082;52.822;6.666;2023-04-03T14:14:41;9.60;81.70
55211;DHT22;41082;52.822;6.666;2023-04-03T14:17:17;9.70;82.20
55211;DHT22;41082;52.822;6.666;2023-04-03T14:19:43;9.70;82.20
55211;DHT22;41082;52.822;6.666;2023-04-03T14:22:18;9.70;82.50
55211;DHT22;41082;52.822;6.666;2023-04-03T14:24:44;9.70;81.90
55211;DHT22;41082;52.822;6.666;2023-04-03T14:27:23;9.70;82.00
55211;DHT22;41082;52.822;6.666;2023-04-03T14:29:51;9.70;81.70
55211;DHT22;41082;52.822;6.666;2023-04-03T14:32:19;9.70;82.50
55211;DHT22;41082;52.822;6.666;2023-04-03T14:34:45;9.70;81.90
55211;DHT22;41082;52.822;6.666;2023-04-03T14:37:16;9.70;81.20
55211;DHT22;41082;52.822;6.666;2023-04-03T14:39:44;9.70;80.50
55211;DHT22;41082;52.822;6.666;2023-04-03T14:42:14;9.70;80.80
55211;DHT22;41082;52.822;6.666;2023-04-03T14:44:41;9.70;80.50
55211;DHT22;41082;52.822;6.666;2023-04-03T14:47:10;9.70;81.20
55211;DHT22;41082;52.822;6.666;2023-04-03T14:49:36;9.70;81.00
55211;DHT22;41082;52.822;6.666;2023-04-03T14:52:02;9.70;81.10
55211;DHT22;41082;52.822;6.666;2023-04-03T14:54:28;9.60;80.40
55211;DHT22;41082;52.822;6.666;2023-04-03T14:56:55;9.60;80.10
55211;DHT22;41082;52.822;6.666;2023-04-03T14:59:22;9.60;80.30
55211;DHT22;41082;52.822;6.666;2023-04-03T15:01:48;9.60;81.00
55211;DHT22;41082;52.822;6.666;2023-04-03T15:04:16;9.60;81.20
55211;DHT22;41082;52.822;6.666;2023-04-03T15:06:42;9.60;80.70
55211;DHT22;41082;52.822;6.666;2023-04-03T15:09:21;9.60;79.90
55211;DHT22;41082;52.822;6.666;2023-04-03T15:11:48;9.60;80.10
55211;DHT22;41082;52.822;6.666;2023-04-03T15:14:15;9.60;79.90
55211;DHT22;41082;52.822;6.666;2023-04-03T15:16:40;9.60;79.70
55211;DHT22;41082;52.822;6.666;2023-04-03T15:19:06;9.60;79.50
55211;DHT22;41082;52.822;6.666;2023-04-03T15:21:31;9.50;79.30
55211;DHT22;41082;52.822;6.666;2023-04-03T15:23:57;9.50;79.30
55211;DHT22;41082;52.822;6.666;2023-04-03T15:26:23;9.50;79.50
55211;DHT22;41082;52.822;6.666;2023-04-03T15:28:49;9.50;79.90
55211;DHT22;41082;52.822;6.666;2023-04-03T15:31:15;9.40;80.30
55211;DHT22;41082;52.822;6.666;2023-04-03T15:33:40;9.50;80.40
55211;DHT22;41082;52.822;6.666;2023-04-03T15:36:07;9.40;80.40
55211;DHT22;41082;52.822;6.666;2023-04-03T15:38:32;9.40;80.30
55211;DHT22;41082;52.822;6.666;2023-04-03T15:40:58;9.40;80.70
55211;DHT22;41082;52.822;6.666;2023-04-03T15:43:24;9.30;80.00
55211;DHT22;41082;52.822;6.666;2023-04-03T15:45:49;9.30;79.20
55211;DHT22;41082;52.822;6.666;2023-04-03T15:48:16;9.20;79.10
55211;DHT22;41082;52.822;6.666;2023-04-03T15:50:42;9.10;78.30
55211;DHT22;41082;52.822;6.666;2023-04-03T15:53:08;9.10;77.40
55211;DHT22;41082;52.822;6.666;2023-04-03T15:55:36;9.00;77.50
55211;DHT22;41082;52.822;6.666;2023-04-03T15:58:03;9.00;77.40
55211;DHT22;41082;52.822;6.666;2023-04-03T16:00:29;8.90;77.30
55211;DHT22;41082;52.822;6.666;2023-04-03T16:03:00;8.90;77.80
55211;DHT22;41082;52.822;6.666;2023-04-03T16:05:27;8.80;73.60
55211;DHT22;41082;52.822;6.666;2023-04-03T16:07:53;8.80;75.20
55211;DHT22;41082;52.822;6.666;2023-04-03T16:10:20;8.70;75.60
55211;DHT22;41082;52.822;6.666;2023-04-03T16:12:46;8.60;77.10
55211;DHT22;41082;52.822;6.666;2023-04-03T16:15:12;8.60;77.20
55211;DHT22;41082;52.822;6.666;2023-04-03T16:17:38;8.60;77.60
55211;DHT22;41082;52.822;6.666;2023-04-03T16:20:06;8.50;77.90
55211;DHT22;41082;52.822;6.666;2023-04-03T16:22:33;8.50;78.50
55211;DHT22;41082;52.822;6.666;2023-04-03T16:24:58;8.60;79.30
55211;DHT22;41082;52.822;6.666;2023-04-03T16:27:24;8.50;80.10
55211;DHT22;41082;52.822;6.666;2023-04-03T16:29:54;8.50;79.80
55211;DHT22;41082;52.822;6.666;2023-04-03T16:32:20;8.50;79.60
55211;DHT22;41082;52.822;6.666;2023-04-03T16:34:46;8.50;79.00
55211;DHT22;41082;52.822;6.666;2023-04-03T16:37:11;8.50;79.10
55211;DHT22;41082;52.822;6.666;2023-04-03T16:39:37;8.50;78.90
55211;DHT22;41082;52.822;6.666;2023-04-03T16:42:03;8.40;76.80
55211;DHT22;41082;52.822;6.666;2023-04-03T16:44:29;8.40;78.00
55211;DHT22;41082;52.822;6.666;2023-04-03T16:46:54;8.30;78.40
55211;DHT22;41082;52.822;6.666;2023-04-03T16:49:20;8.30;78.40
55211;DHT22;41082;52.822;6.666;2023-04-03T16:51:47;8.30;78.90
55211;DHT22;41082;52.822;6.666;2023-04-03T16:54:13;8.30;79.70
55211;DHT22;41082;52.822;6.666;2023-04-03T16:56:39;8.20;79.90
55211;DHT22;41082;52.822;6.666;2023-04-03T16:59:05;8.20;78.40
55211;DHT22;41082;52.822;6.666;2023-04-03T17:01:31;8.20;78.30
55211;DHT22;41082;52.822;6.666;2023-04-03T17:03:57;8.10;78.50
55211;DHT22;41082;52.822;6.666;2023-04-03T17:06:23;8.10;78.10
55211;DHT22;41082;52.822;6.666;2023-04-03T17:08:51;8.00;78.70
55211;DHT22;41082;52.822;6.666;2023-04-03T17:11:17;8.00;78.20
55211;DHT22;41082;52.822;6.666;2023-04-03T17:13:43;8.00;78.90
55211;DHT22;41082;52.822;6.666;2023-04-03T17:16:12;7.90;78.60